createdAt,value
2022-08-19T00:01:31.353Z,26.10
2022-08-19T00:03:59.849Z,26.58
2022-08-19T00:06:28.387Z,31.10
2022-08-19T00:08:56.540Z,27.00
2022-08-19T00:11:25.856Z,25.95
2022-08-19T00:13:53.796Z,29.75
2022-08-19T00:16:25.107Z,27.88
2022-08-19T00:18:54.537Z,29.40
2022-08-19T00:21:22.014Z,28.48
2022-08-19T00:23:49.058Z,28.50
2022-08-19T00:26:16.279Z,26.63
2022-08-19T00:28:43.256Z,29.58
2022-08-19T00:31:10.998Z,27.30
2022-08-19T00:33:39.099Z,34.55
2022-08-19T00:36:09.734Z,28.60
2022-08-19T00:38:38.643Z,34.60
2022-08-19T00:41:07.179Z,29.73
2022-08-19T00:43:34.690Z,28.23
2022-08-19T00:46:05.803Z,28.13
2022-08-19T00:48:34.918Z,28.80
2022-08-19T00:51:02.661Z,28.75
2022-08-19T00:53:32.453Z,28.98
2022-08-19T00:56:02.002Z,31.45
2022-08-19T00:58:33.390Z,32.95
2022-08-19T01:01:01.869Z,28.92
2022-08-19T01:03:29.313Z,26.92
2022-08-19T01:06:19.933Z,34.47
2022-08-19T01:08:49.912Z,29.92
2022-08-19T01:11:18.186Z,34.35
2022-08-19T01:13:50.003Z,30.23
2022-08-19T01:16:20.340Z,29.35
2022-08-19T01:18:47.996Z,29.20
2022-08-19T01:21:29.883Z,31.67
2022-08-19T01:23:57.132Z,28.08
2022-08-19T01:26:26.039Z,31.42
2022-08-19T01:28:58.347Z,32.67
2022-08-19T01:31:33.308Z,31.27
2022-08-19T01:34:02.770Z,35.30
2022-08-19T01:36:36.434Z,35.88
2022-08-19T01:39:07.077Z,32.58
2022-08-19T01:41:35.322Z,31.20
2022-08-19T01:44:17.163Z,27.33
2022-08-19T01:46:48.727Z,32.92
2022-08-19T01:49:17.559Z,31.83
2022-08-19T01:51:44.741Z,33.08
2022-08-19T01:54:23.245Z,31.10
2022-08-19T01:57:01.284Z,29.38
2022-08-19T01:59:29.198Z,34.20
2022-08-19T02:01:56.431Z,31.33
2022-08-19T02:04:24.423Z,29.42
2022-08-19T02:06:51.749Z,29.95
2022-08-19T02:09:18.953Z,28.20
2022-08-19T02:11:45.992Z,30.05
2022-08-19T02:14:13.173Z,33.25
2022-08-19T02:16:41.133Z,37.35
2022-08-19T02:19:08.494Z,33.65
2022-08-19T02:21:36.213Z,34.53
2022-08-19T02:24:03.460Z,31.95
2022-08-19T02:26:30.679Z,37.38
2022-08-19T02:28:57.923Z,33.10
2022-08-19T02:31:26.783Z,42.13
2022-08-19T02:33:56.575Z,42.40
2022-08-19T02:36:26.011Z,41.22
2022-08-19T02:38:54.891Z,32.15
2022-08-19T02:41:34.079Z,31.75
2022-08-19T02:44:30.589Z,32.78
2022-08-19T02:46:52.921Z,34.35
2022-08-19T02:49:20.162Z,26.85
2022-08-19T02:51:47.677Z,31.95
2022-08-19T02:54:16.032Z,28.88
2022-08-19T02:56:44.899Z,32.22
2022-08-19T02:59:12.923Z,35.30
2022-08-19T03:01:42.051Z,33.13
2022-08-19T03:04:12.303Z,33.83
2022-08-19T03:06:41.097Z,33.58
2022-08-19T03:09:08.983Z,31.80
2022-08-19T03:11:36.433Z,29.85
2022-08-19T03:14:05.630Z,37.03
2022-08-19T03:16:36.603Z,35.10
2022-08-19T03:19:03.897Z,36.65
2022-08-19T03:21:33.549Z,35.95
2022-08-19T03:24:04.873Z,34.30
2022-08-19T03:26:32.909Z,34.25
2022-08-19T03:29:04.996Z,34.83
2022-08-19T03:31:43.975Z,32.85
2022-08-19T03:34:27.702Z,33.75
2022-08-19T03:36:59.862Z,35.17
2022-08-19T03:39:27.503Z,37.50
2022-08-19T03:42:31.723Z,32.30
2022-08-19T03:44:50.541Z,36.15
2022-08-19T03:47:17.903Z,40.63
2022-08-19T03:49:45.756Z,36.03
2022-08-19T03:52:13.034Z,38.10
2022-08-19T03:54:40.365Z,33.92
2022-08-19T03:57:08.648Z,36.92
2022-08-19T03:59:38.199Z,36.95
2022-08-19T04:02:10.317Z,42.58
2022-08-19T04:04:44.169Z,43.83
2022-08-19T04:07:15.863Z,34.60
2022-08-19T04:09:43.282Z,37.13
2022-08-19T04:12:10.282Z,36.15
2022-08-19T04:14:37.366Z,34.00
2022-08-19T04:17:05.984Z,35.58
2022-08-19T04:19:35.654Z,30.95
2022-08-19T04:22:03.926Z,35.22
2022-08-19T04:24:31.213Z,36.38
2022-08-19T04:27:01.271Z,34.70
2022-08-19T04:29:28.503Z,29.55
2022-08-19T04:31:57.086Z,32.80
2022-08-19T04:34:29.337Z,36.40
2022-08-19T04:36:59.089Z,37.53
2022-08-19T04:39:49.661Z,36.95
2022-08-19T04:42:37.561Z,34.30
2022-08-19T04:45:09.228Z,43.17
2022-08-19T04:47:49.230Z,31.75
2022-08-19T04:50:27.575Z,28.83
2022-08-19T04:52:57.067Z,33.08
2022-08-19T04:55:26.807Z,30.85
2022-08-19T04:57:54.955Z,29.02
2022-08-19T05:00:22.505Z,28.38
2022-08-19T05:02:50.328Z,28.98
2022-08-19T05:05:17.920Z,29.48
2022-08-19T05:07:45.052Z,29.95
2022-08-19T05:10:12.689Z,37.55
2022-08-19T05:12:40.139Z,30.00
2022-08-19T05:15:09.667Z,41.83
2022-08-19T05:17:38.850Z,27.88
2022-08-19T05:20:26.937Z,28.85
2022-08-19T05:22:54.247Z,30.63
2022-08-19T05:25:22.593Z,28.52
2022-08-19T05:27:49.938Z,33.92
2022-08-19T05:30:18.210Z,26.67
2022-08-19T05:32:45.767Z,30.27
2022-08-19T05:35:12.945Z,27.63
2022-08-19T05:37:41.735Z,28.77
2022-08-19T05:40:10.320Z,24.95
2022-08-19T05:42:38.107Z,27.63
2022-08-19T05:45:05.929Z,25.35
2022-08-19T05:47:33.260Z,27.65
2022-08-19T05:50:02.955Z,26.65
2022-08-19T05:52:33.434Z,27.73
2022-08-19T05:55:00.641Z,24.25
2022-08-19T05:57:29.854Z,21.63
2022-08-19T05:59:59.115Z,27.23
2022-08-19T06:02:28.510Z,18.60
2022-08-19T06:04:55.474Z,23.58
2022-08-19T06:07:23.100Z,21.42
2022-08-19T06:09:58.942Z,18.95
2022-08-19T06:12:32.647Z,22.15
2022-08-19T06:15:05.944Z,23.63
2022-08-19T06:17:35.742Z,21.35
2022-08-19T06:20:14.451Z,24.23
2022-08-19T06:22:44.289Z,25.38
2022-08-19T06:25:13.010Z,22.00
2022-08-19T06:27:58.616Z,21.88
2022-08-19T06:30:28.242Z,19.73
2022-08-19T06:32:55.306Z,24.13
2022-08-19T06:35:22.472Z,23.75
2022-08-19T06:37:49.922Z,18.17
2022-08-19T06:40:16.985Z,20.38
2022-08-19T06:42:52.311Z,21.05
2022-08-19T06:45:24.875Z,16.40
2022-08-19T06:47:57.096Z,20.48
2022-08-19T06:50:25.302Z,16.95
2022-08-19T06:52:53.283Z,20.27
2022-08-19T06:55:20.912Z,21.58
2022-08-19T06:57:49.286Z,14.73
2022-08-19T07:00:16.943Z,19.50
2022-08-19T07:02:49.614Z,23.13
2022-08-19T07:05:23.319Z,19.30
2022-08-19T07:07:51.119Z,16.95
2022-08-19T07:10:20.117Z,17.88
2022-08-19T07:12:48.555Z,17.20
2022-08-19T07:15:16.684Z,14.90
2022-08-19T07:17:45.931Z,13.02
2022-08-19T07:20:16.673Z,17.65
2022-08-19T07:22:46.460Z,14.18
2022-08-19T07:25:14.310Z,17.63
2022-08-19T07:27:41.542Z,16.70
2022-08-19T07:30:14.382Z,16.15
2022-08-19T07:32:41.637Z,15.98
2022-08-19T07:35:10.346Z,16.90
2022-08-19T07:37:38.172Z,18.02
2022-08-19T07:40:08.682Z,19.00
2022-08-19T07:42:35.943Z,15.27
2022-08-19T07:45:03.556Z,11.15
2022-08-19T07:47:58.507Z,15.73
2022-08-19T07:50:20.632Z,12.35
2022-08-19T07:52:50.624Z,13.90
2022-08-19T07:55:41.526Z,12.63
2022-08-19T07:58:14.491Z,14.52
2022-08-19T08:00:43.281Z,13.60
2022-08-19T08:03:11.258Z,16.10
2022-08-19T08:05:56.980Z,12.32
2022-08-19T08:08:44.301Z,15.52
2022-08-19T08:11:20.047Z,11.63
2022-08-19T08:14:01.107Z,17.48
2022-08-19T08:16:47.086Z,15.60
2022-08-19T08:19:20.633Z,16.15
2022-08-19T08:21:58.955Z,15.25
2022-08-19T08:24:29.544Z,10.48
2022-08-19T08:27:01.137Z,11.88
2022-08-19T08:29:35.114Z,12.70
2022-08-19T08:32:04.538Z,14.77
2022-08-19T08:34:42.413Z,9.27
2022-08-19T08:37:09.997Z,19.98
2022-08-19T08:39:37.066Z,15.23
2022-08-19T08:42:23.815Z,9.32
2022-08-19T08:45:02.597Z,9.93
2022-08-19T08:47:47.188Z,11.85
2022-08-19T08:50:36.647Z,8.85
2022-08-19T08:53:06.790Z,18.45
2022-08-19T08:55:36.691Z,14.23
2022-08-19T08:58:10.378Z,14.02
2022-08-19T09:00:41.309Z,10.93
2022-08-19T09:03:17.343Z,16.23
2022-08-19T09:05:57.185Z,15.13
2022-08-19T09:08:40.480Z,13.52
2022-08-19T09:11:42.603Z,10.48
2022-08-19T09:14:07.941Z,20.30
2022-08-19T09:16:35.350Z,15.88
2022-08-19T09:19:06.396Z,13.32
2022-08-19T09:21:34.319Z,16.30
2022-08-19T09:24:03.700Z,13.15
2022-08-19T09:26:47.415Z,14.05
2022-08-19T09:29:22.678Z,12.43
2022-08-19T09:31:51.015Z,11.23
2022-08-19T09:34:21.359Z,10.98
2022-08-19T09:36:54.232Z,15.13
2022-08-19T09:39:22.300Z,13.40
2022-08-19T09:41:51.082Z,13.40
2022-08-19T09:44:19.012Z,17.75
2022-08-19T09:46:48.409Z,14.43
2022-08-19T09:49:18.309Z,11.32
2022-08-19T09:51:51.302Z,12.30
2022-08-19T09:54:23.886Z,14.70
2022-08-19T09:56:55.335Z,14.82
2022-08-19T09:59:23.041Z,11.27
2022-08-19T10:01:50.349Z,9.80
2022-08-19T10:04:20.466Z,9.18
2022-08-19T10:06:53.555Z,10.85
2022-08-19T10:09:26.213Z,13.25
2022-08-19T10:12:03.027Z,12.02
2022-08-19T10:14:31.073Z,13.82
2022-08-19T10:16:59.288Z,12.52
2022-08-19T10:19:27.395Z,12.02
2022-08-19T10:21:58.656Z,16.40
2022-08-19T10:24:29.067Z,13.68
2022-08-19T10:26:59.761Z,11.88
2022-08-19T10:29:31.878Z,11.23
2022-08-19T10:32:09.872Z,13.40
2022-08-19T10:34:48.429Z,14.80
2022-08-19T10:37:28.957Z,12.93
2022-08-19T10:39:58.296Z,16.70
2022-08-19T10:42:25.615Z,15.60
2022-08-19T10:44:52.768Z,14.82
2022-08-19T10:47:25.067Z,17.33
2022-08-19T10:50:14.624Z,12.43
2022-08-19T10:52:49.749Z,17.02
2022-08-19T10:55:43.744Z,18.95
2022-08-19T10:58:13.403Z,10.70
2022-08-19T11:00:41.506Z,13.73
2022-08-19T11:03:09.544Z,15.00
2022-08-19T11:05:39.907Z,19.33
2022-08-19T11:08:22.538Z,14.93
2022-08-19T11:11:01.681Z,15.07
2022-08-19T11:13:38.275Z,17.65
2022-08-19T11:16:09.713Z,14.65
2022-08-19T11:18:44.239Z,13.35
2022-08-19T11:21:20.110Z,11.95
2022-08-19T11:23:51.524Z,12.88
2022-08-19T11:26:21.027Z,13.25
2022-08-19T11:28:49.192Z,12.32
2022-08-19T11:31:19.756Z,11.30
2022-08-19T11:33:48.097Z,23.20
2022-08-19T11:36:17.029Z,14.02
2022-08-19T11:38:45.913Z,9.80
2022-08-19T11:41:13.101Z,17.67
2022-08-19T11:43:40.644Z,19.60
2022-08-19T11:46:13.983Z,20.35
2022-08-19T11:48:42.084Z,13.20
2022-08-19T11:51:16.795Z,13.68
2022-08-19T11:53:44.026Z,19.73
2022-08-19T11:56:11.555Z,15.07
2022-08-19T11:58:39.145Z,19.15
2022-08-19T12:01:08.413Z,15.63
2022-08-19T12:03:35.575Z,12.73
2022-08-19T12:06:13.708Z,14.70
2022-08-19T12:08:42.200Z,16.92
2022-08-19T12:11:09.207Z,21.17
2022-08-19T12:13:37.326Z,17.98
2022-08-19T12:16:17.653Z,12.50
2022-08-19T12:18:47.415Z,15.23
2022-08-19T12:21:18.252Z,13.35
2022-08-19T12:23:50.013Z,15.75
2022-08-19T12:26:21.211Z,17.08
2022-08-19T12:28:49.214Z,15.73
2022-08-19T12:31:17.426Z,11.88
2022-08-19T12:33:44.793Z,16.83
2022-08-19T12:36:13.440Z,17.25
2022-08-19T12:38:41.329Z,20.23
2022-08-19T12:41:13.337Z,12.15
2022-08-19T12:43:40.761Z,13.00
2022-08-19T12:46:08.197Z,12.32
2022-08-19T12:48:42.577Z,19.80
2022-08-19T12:51:13.684Z,14.63
2022-08-19T12:53:41.649Z,17.15
2022-08-19T12:56:12.192Z,15.52
2022-08-19T12:58:40.394Z,13.82
2022-08-19T13:01:11.161Z,13.68
2022-08-19T13:03:40.734Z,14.88
2022-08-19T13:06:09.287Z,16.08
2022-08-19T13:08:37.297Z,15.70
2022-08-19T13:11:13.393Z,16.77
2022-08-19T13:13:43.610Z,23.67
2022-08-19T13:16:12.634Z,14.25
2022-08-19T13:18:41.294Z,16.83
2022-08-19T13:21:12.642Z,20.08
2022-08-19T13:23:40.975Z,18.15
2022-08-19T13:26:09.821Z,17.48
2022-08-19T13:28:55.494Z,19.42
2022-08-19T13:31:43.426Z,15.63
2022-08-19T13:34:11.218Z,16.30
2022-08-19T13:36:39.074Z,15.05
2022-08-19T13:39:08.630Z,13.60
2022-08-19T13:41:37.188Z,18.77
2022-08-19T13:44:05.442Z,16.20
2022-08-19T13:46:32.629Z,17.30
2022-08-19T13:48:59.785Z,15.82
2022-08-19T13:51:27.031Z,17.65
2022-08-19T13:53:54.494Z,16.17
2022-08-19T13:56:25.572Z,20.48
2022-08-19T13:58:54.558Z,21.02
2022-08-19T14:01:24.469Z,13.07
2022-08-19T14:03:52.425Z,15.65
2022-08-19T14:06:20.320Z,19.05
2022-08-19T14:08:47.546Z,17.17
2022-08-19T14:11:15.139Z,31.90
2022-08-19T14:13:42.391Z,16.08
2022-08-19T14:16:11.688Z,17.17
2022-08-19T14:18:40.661Z,15.20
2022-08-19T14:21:08.174Z,18.98
2022-08-19T14:23:36.987Z,19.40
2022-08-19T14:26:10.298Z,14.02
2022-08-19T14:28:37.339Z,18.42
2022-08-19T14:31:04.422Z,16.00
2022-08-19T14:33:31.630Z,14.52
2022-08-19T14:35:59.810Z,17.88
2022-08-19T14:38:31.628Z,12.30
2022-08-19T14:41:10.955Z,16.42
2022-08-19T14:43:38.609Z,16.08
2022-08-19T14:46:06.470Z,19.02
2022-08-19T14:48:33.918Z,17.45
2022-08-19T14:51:00.894Z,16.92
2022-08-19T14:53:28.104Z,17.83
2022-08-19T14:55:55.199Z,18.00
2022-08-19T14:58:28.998Z,7.43
2022-08-19T15:01:00.802Z,12.73
2022-08-19T15:03:29.498Z,13.68
2022-08-19T15:05:58.608Z,15.40
2022-08-19T15:08:27.076Z,17.40
2022-08-19T15:10:55.178Z,16.25
2022-08-19T15:13:22.534Z,16.27
2022-08-19T15:15:49.766Z,13.63
2022-08-19T15:18:16.813Z,22.02
2022-08-19T15:20:46.618Z,12.70
2022-08-19T15:23:16.278Z,16.63
2022-08-19T15:25:44.507Z,19.08
2022-08-19T15:28:12.170Z,15.45
2022-08-19T15:30:41.203Z,17.08
2022-08-19T15:33:08.578Z,13.52
2022-08-19T15:35:35.526Z,20.38
2022-08-19T15:38:03.053Z,13.45
2022-08-19T15:40:30.147Z,19.13
2022-08-19T15:42:58.246Z,23.17
2022-08-19T15:45:32.517Z,13.05
2022-08-19T15:48:01.742Z,12.25
2022-08-19T15:50:31.967Z,18.45
2022-08-19T15:53:06.060Z,19.30
2022-08-19T15:55:36.278Z,22.58
2022-08-19T15:58:28.880Z,19.90
2022-08-19T16:01:21.565Z,20.40
2022-08-19T16:04:13.880Z,19.23
2022-08-19T16:06:46.785Z,18.05
2022-08-19T16:09:15.478Z,13.68
2022-08-19T16:11:45.958Z,13.30
2022-08-19T16:14:19.035Z,15.57
2022-08-19T16:16:47.725Z,16.50
2022-08-19T16:19:20.289Z,16.27
2022-08-19T16:21:50.712Z,16.23
2022-08-19T16:24:20.392Z,21.42
2022-08-19T16:26:48.295Z,14.90
2022-08-19T16:29:33.181Z,12.23
2022-08-19T16:32:04.018Z,11.77
2022-08-19T16:34:31.953Z,17.88
2022-08-19T16:37:00.898Z,19.70
2022-08-19T16:39:28.107Z,17.42
2022-08-19T16:41:55.428Z,17.65
2022-08-19T16:44:22.553Z,13.65
2022-08-19T16:46:58.397Z,12.15
2022-08-19T16:49:53.358Z,16.30
2022-08-19T16:52:19.173Z,16.40
2022-08-19T16:54:46.864Z,11.02
2022-08-19T16:57:14.046Z,13.18
2022-08-19T16:59:48.454Z,14.20
2022-08-19T17:02:19.451Z,14.82
2022-08-19T17:04:57.284Z,14.77
2022-08-19T17:07:33.448Z,15.65
2022-08-19T17:10:04.738Z,16.98
2022-08-19T17:12:32.523Z,14.05
2022-08-19T17:15:02.717Z,17.85
2022-08-19T17:17:31.640Z,13.20
2022-08-19T17:20:00.476Z,20.65
2022-08-19T17:22:27.906Z,12.75
2022-08-19T17:24:57.829Z,17.60
2022-08-19T17:27:31.378Z,14.15
2022-08-19T17:30:02.640Z,15.30
2022-08-19T17:32:30.854Z,15.55
2022-08-19T17:34:58.195Z,19.30
2022-08-19T17:37:25.592Z,15.23
2022-08-19T17:39:52.693Z,16.48
2022-08-19T17:42:20.310Z,14.50
2022-08-19T17:44:50.684Z,15.70
2022-08-19T17:47:19.453Z,18.20
2022-08-19T17:49:46.746Z,15.70
2022-08-19T17:52:14.373Z,20.40
2022-08-19T17:54:41.457Z,19.88
2022-08-19T17:57:09.646Z,27.25
2022-08-19T17:59:40.218Z,22.05
2022-08-19T18:02:10.037Z,18.90
2022-08-19T18:04:38.525Z,22.58
2022-08-19T18:07:06.391Z,22.58
2022-08-19T18:09:42.746Z,24.50
2022-08-19T18:12:13.816Z,17.42
2022-08-19T18:14:41.882Z,24.60
2022-08-19T18:17:12.995Z,21.88
2022-08-19T18:19:43.124Z,27.63
2022-08-19T18:22:36.993Z,20.08
2022-08-19T18:25:08.804Z,18.67
2022-08-19T18:27:36.074Z,18.55
2022-08-19T18:30:07.456Z,17.52
2022-08-19T18:32:38.489Z,14.95
2022-08-19T18:35:12.622Z,18.17
2022-08-19T18:37:44.856Z,19.17
2022-08-19T18:40:34.867Z,18.48
2022-08-19T18:43:20.593Z,23.92
2022-08-19T18:46:07.243Z,20.80
2022-08-19T18:48:54.696Z,26.83
2022-08-19T18:51:28.475Z,20.40
2022-08-19T18:53:58.764Z,22.20
2022-08-19T18:56:29.293Z,19.73
2022-08-19T18:58:56.797Z,28.08
2022-08-19T19:01:32.091Z,28.50
2022-08-19T19:04:01.793Z,32.15
2022-08-19T19:06:35.889Z,46.30
2022-08-19T19:09:03.617Z,25.48
2022-08-19T19:11:33.983Z,28.55
2022-08-19T19:14:03.486Z,29.73
2022-08-19T19:16:31.717Z,19.73
2022-08-19T19:18:59.253Z,20.10
2022-08-19T19:21:26.844Z,21.30
2022-08-19T19:23:55.545Z,23.30
2022-08-19T19:26:23.146Z,24.08
2022-08-19T19:28:51.476Z,26.27
2022-08-19T19:31:23.250Z,35.60
2022-08-19T19:33:50.683Z,30.15
2022-08-19T19:36:17.631Z,24.08
2022-08-19T19:38:48.700Z,26.10
2022-08-19T19:41:20.137Z,21.30
2022-08-19T19:43:56.654Z,24.95
2022-08-19T19:46:33.566Z,27.13
2022-08-19T19:49:01.102Z,28.73
2022-08-19T19:51:29.041Z,21.10
2022-08-19T19:54:00.099Z,23.27
2022-08-19T19:56:27.367Z,17.48
2022-08-19T19:58:54.478Z,21.67
2022-08-19T20:01:24.879Z,26.52
2022-08-19T20:03:54.591Z,30.00
2022-08-19T20:06:22.426Z,25.15
2022-08-19T20:09:07.813Z,20.63
2022-08-19T20:11:38.940Z,23.65
2022-08-19T20:14:11.819Z,21.83
2022-08-19T20:16:44.111Z,23.35
2022-08-19T20:19:13.606Z,23.25
2022-08-19T20:21:44.953Z,23.52
2022-08-19T20:24:17.230Z,28.67
2022-08-19T20:26:47.191Z,24.95
2022-08-19T20:29:39.469Z,20.38
2022-08-19T20:32:09.206Z,31.73
2022-08-19T20:34:37.325Z,21.75
2022-08-19T20:37:04.789Z,20.17
2022-08-19T20:39:32.184Z,21.50
2022-08-19T20:42:00.858Z,22.00
2022-08-19T20:44:27.861Z,22.55
2022-08-19T20:46:58.404Z,18.80
2022-08-19T20:49:27.632Z,24.33
2022-08-19T20:51:56.644Z,22.55
2022-08-19T20:54:24.441Z,23.08
2022-08-19T20:56:51.827Z,19.45
2022-08-19T20:59:20.157Z,20.75
2022-08-19T21:01:48.557Z,23.90
2022-08-19T21:04:15.527Z,19.35
2022-08-19T21:06:45.367Z,25.58
2022-08-19T21:09:13.792Z,21.48
2022-08-19T21:11:41.210Z,18.45
2022-08-19T21:14:08.510Z,23.33
2022-08-19T21:16:35.879Z,23.00
2022-08-19T21:19:03.678Z,22.02
2022-08-19T21:21:31.588Z,25.75
2022-08-19T21:23:59.002Z,18.95
2022-08-19T21:26:25.989Z,21.90
2022-08-19T21:28:53.445Z,21.20
2022-08-19T21:31:21.172Z,19.08
2022-08-19T21:33:48.153Z,21.95
2022-08-19T21:36:15.143Z,23.65
2022-08-19T21:38:42.317Z,20.52
2022-08-19T21:41:09.436Z,27.65
2022-08-19T21:43:37.677Z,23.23
2022-08-19T21:46:05.317Z,23.13
2022-08-19T21:48:32.933Z,26.13
2022-08-19T21:50:59.964Z,24.48
2022-08-19T21:53:34.110Z,21.20
2022-08-19T21:56:03.360Z,25.27
2022-08-19T21:58:30.809Z,24.30
2022-08-19T22:01:05.805Z,25.27
2022-08-19T22:03:35.425Z,28.20
2022-08-19T22:06:02.875Z,28.15
2022-08-19T22:08:31.426Z,27.58
2022-08-19T22:11:01.609Z,26.75
2022-08-19T22:13:30.240Z,30.40
2022-08-19T22:15:57.179Z,28.20
2022-08-19T22:18:24.733Z,25.73
2022-08-19T22:20:52.171Z,28.98
2022-08-19T22:23:19.170Z,27.48
2022-08-19T22:25:47.404Z,27.02
2022-08-19T22:28:19.012Z,27.52
2022-08-19T22:30:56.068Z,28.80
2022-08-19T22:33:23.970Z,26.33
2022-08-19T22:35:52.203Z,28.70
2022-08-19T22:38:19.426Z,27.92
2022-08-19T22:40:48.453Z,34.55
2022-08-19T22:43:18.545Z,32.42
2022-08-19T22:45:47.425Z,30.42
2022-08-19T22:48:19.738Z,29.08
2022-08-19T22:51:08.681Z,31.08
2022-08-19T22:53:38.012Z,29.13
2022-08-19T22:56:14.611Z,27.02
2022-08-19T22:58:43.539Z,31.45
2022-08-19T23:01:14.718Z,32.45
2022-08-19T23:03:56.559Z,35.47
2022-08-19T23:06:25.269Z,33.47
2022-08-19T23:09:02.041Z,34.42
2022-08-19T23:11:34.711Z,30.08
2022-08-19T23:14:03.932Z,30.35
2022-08-19T23:16:34.818Z,33.00
2022-08-19T23:19:02.076Z,31.05
2022-08-19T23:21:29.116Z,31.50
2022-08-19T23:23:56.640Z,33.25
2022-08-19T23:26:23.754Z,27.02
2022-08-19T23:29:09.133Z,30.42
2022-08-19T23:31:36.464Z,31.42
2022-08-19T23:34:03.891Z,30.10
2022-08-19T23:36:31.044Z,28.38
2022-08-19T23:38:59.580Z,27.65
2022-08-19T23:41:28.006Z,27.73
2022-08-19T23:43:55.176Z,29.50
2022-08-19T23:46:28.067Z,27.98
2022-08-19T23:48:56.948Z,29.75
2022-08-19T23:51:26.761Z,34.17
2022-08-19T23:53:53.927Z,28.58
2022-08-19T23:56:21.529Z,30.33
2022-08-19T23:58:49.282Z,32.03
